createdAt,value
2018-05-16T00:00:39.256Z,74.20
2018-05-16T00:03:06.809Z,74.08
2018-05-16T00:05:34.410Z,74.23
2018-05-16T00:08:02.054Z,74.41
2018-05-16T00:10:29.569Z,74.85
2018-05-16T00:12:57.134Z,74.88
2018-05-16T00:15:24.720Z,75.14
2018-05-16T00:17:52.303Z,75.16
2018-05-16T00:20:19.881Z,75.49
2018-05-16T00:22:47.450Z,75.83
2018-05-16T00:25:15.032Z,76.32
2018-05-16T00:27:42.582Z,76.85
2018-05-16T00:30:10.133Z,77.01
2018-05-16T00:32:37.703Z,77.43
2018-05-16T00:35:05.359Z,77.22
2018-05-16T00:37:32.904Z,76.50
2018-05-16T00:40:00.520Z,76.42
2018-05-16T00:42:28.069Z,76.66
2018-05-16T00:44:55.652Z,76.51
2018-05-16T00:47:23.216Z,76.70
2018-05-16T00:49:50.835Z,77.03
2018-05-16T00:52:18.413Z,77.08
2018-05-16T00:54:46.004Z,77.65
2018-05-16T00:57:13.547Z,77.05
2018-05-16T00:59:41.118Z,76.63
2018-05-16T01:02:08.691Z,76.75
2018-05-16T01:04:36.266Z,76.44
2018-05-16T01:07:03.837Z,76.74
2018-05-16T01:09:31.386Z,76.65
2018-05-16T01:11:59.660Z,76.44
2018-05-16T01:14:27.229Z,76.49
2018-05-16T01:16:54.850Z,75.91
2018-05-16T01:19:22.480Z,76.04
2018-05-16T01:21:50.066Z,76.55
2018-05-16T01:24:17.621Z,76.10
2018-05-16T01:26:45.255Z,75.80
2018-05-16T01:29:12.802Z,76.16
2018-05-16T01:31:40.364Z,76.11
2018-05-16T01:34:07.959Z,76.29
2018-05-16T01:36:35.503Z,76.37
2018-05-16T01:39:03.136Z,76.13
2018-05-16T01:41:30.717Z,76.79
2018-05-16T01:43:58.282Z,76.67
2018-05-16T01:46:25.817Z,76.34
2018-05-16T01:49:05.301Z,76.62
2018-05-16T01:51:32.868Z,76.54
2018-05-16T01:54:00.431Z,76.97
2018-05-16T01:56:28.007Z,77.42
2018-05-16T01:58:55.567Z,78.15
2018-05-16T02:01:23.128Z,78.99
2018-05-16T02:03:50.687Z,79.66
2018-05-16T02:06:18.265Z,79.45
2018-05-16T02:08:45.842Z,79.46
2018-05-16T02:11:13.369Z,79.58
2018-05-16T02:13:41.005Z,79.10
2018-05-16T02:16:08.625Z,80.07
2018-05-16T02:18:36.194Z,80.53
2018-05-16T02:21:03.760Z,81.30
2018-05-16T02:23:31.292Z,81.22
2018-05-16T02:25:58.860Z,81.31
2018-05-16T02:28:26.499Z,81.90
2018-05-16T02:30:54.036Z,82.05
2018-05-16T02:33:21.613Z,81.52
2018-05-16T02:35:49.207Z,81.03
2018-05-16T02:38:16.892Z,82.71
2018-05-16T02:40:44.476Z,82.13
2018-05-16T02:43:12.064Z,81.57
2018-05-16T02:45:39.652Z,83.04
2018-05-16T02:48:07.211Z,82.37
2018-05-16T02:50:34.765Z,82.45
2018-05-16T02:53:02.331Z,82.66
2018-05-16T02:55:29.908Z,82.55
2018-05-16T02:57:57.508Z,82.95
2018-05-16T03:00:25.060Z,82.74
2018-05-16T03:02:52.631Z,82.27
2018-05-16T03:05:20.178Z,82.30
2018-05-16T03:07:47.744Z,82.00
2018-05-16T03:10:15.384Z,81.72
2018-05-16T03:12:42.954Z,82.11
2018-05-16T03:15:10.496Z,81.65
2018-05-16T03:17:38.113Z,81.59
2018-05-16T03:20:05.658Z,81.73
2018-05-16T03:22:33.212Z,82.16
2018-05-16T03:25:00.855Z,81.81
2018-05-16T03:27:28.423Z,82.06
2018-05-16T03:29:55.990Z,82.38
2018-05-16T03:32:23.530Z,81.80
2018-05-16T03:34:51.098Z,82.74
2018-05-16T03:37:18.642Z,82.44
2018-05-16T03:39:46.238Z,81.74
2018-05-16T03:42:13.798Z,82.50
2018-05-16T03:44:41.374Z,81.54
2018-05-16T03:47:08.923Z,82.33
2018-05-16T03:49:36.473Z,82.57
2018-05-16T03:52:04.086Z,82.54
2018-05-16T03:54:31.714Z,83.43
2018-05-16T03:56:59.267Z,83.39
2018-05-16T03:59:38.633Z,82.91
2018-05-16T04:02:18.103Z,83.21
2018-05-16T04:04:45.701Z,83.30
2018-05-16T04:07:13.255Z,82.53
2018-05-16T04:09:40.791Z,82.62
2018-05-16T04:12:08.401Z,82.79
2018-05-16T04:14:35.979Z,81.60
2018-05-16T04:17:03.590Z,80.86
2018-05-16T04:19:31.138Z,81.28
2018-05-16T04:21:58.720Z,81.54
2018-05-16T04:24:26.272Z,81.93
2018-05-16T04:26:53.879Z,81.68
2018-05-16T04:29:21.471Z,81.83
2018-05-16T04:31:49.088Z,81.27
2018-05-16T04:34:16.645Z,82.30
2018-05-16T04:36:44.253Z,82.92
2018-05-16T04:39:11.791Z,83.17
2018-05-16T04:41:39.390Z,83.09
2018-05-16T04:44:06.972Z,82.90
2018-05-16T04:46:34.539Z,82.72
2018-05-16T04:49:02.123Z,83.72
2018-05-16T04:51:29.686Z,84.28
2018-05-16T04:53:57.268Z,84.11
2018-05-16T04:56:24.796Z,82.87
2018-05-16T04:58:52.383Z,83.23
2018-05-16T05:01:19.967Z,83.26
2018-05-16T05:03:47.481Z,83.03
2018-05-16T05:06:15.018Z,83.54
2018-05-16T05:08:42.652Z,83.54
2018-05-16T05:11:10.262Z,82.71
2018-05-16T05:13:37.851Z,82.65
2018-05-16T05:16:05.368Z,82.26
2018-05-16T05:18:33.032Z,81.73
2018-05-16T05:21:00.499Z,82.60
2018-05-16T05:23:28.093Z,81.79
2018-05-16T05:25:55.686Z,81.74
2018-05-16T05:28:23.253Z,81.01
2018-05-16T05:30:50.845Z,81.69
2018-05-16T05:33:18.411Z,81.72
2018-05-16T05:35:45.963Z,81.90
2018-05-16T05:38:13.506Z,81.40
2018-05-16T05:40:41.026Z,81.62
2018-05-16T05:43:08.583Z,81.82
2018-05-16T05:45:36.228Z,81.19
2018-05-16T05:48:03.824Z,82.15
2018-05-16T05:50:31.503Z,81.49
2018-05-16T05:52:59.114Z,81.43
2018-05-16T05:55:26.727Z,81.79
2018-05-16T05:57:54.310Z,80.69
2018-05-16T06:00:21.872Z,80.28
2018-05-16T06:02:49.420Z,80.70
2018-05-16T06:05:16.956Z,79.60
2018-05-16T06:07:44.588Z,78.48
2018-05-16T06:10:12.144Z,79.52
2018-05-16T06:12:39.843Z,77.57
2018-05-16T06:15:08.998Z,75.23
2018-05-16T06:17:36.650Z,75.18
2018-05-16T06:20:04.284Z,75.12
2018-05-16T06:22:31.852Z,74.80
2018-05-16T06:24:59.500Z,75.37
2018-05-16T06:27:27.413Z,75.41
2018-05-16T06:29:55.183Z,75.15
2018-05-16T06:32:22.715Z,76.09
2018-05-16T06:34:50.915Z,74.72
2018-05-16T06:37:18.627Z,75.21
2018-05-16T06:39:46.300Z,74.83
2018-05-16T06:42:13.869Z,73.24
2018-05-16T06:44:41.400Z,72.27
2018-05-16T06:47:09.011Z,70.77
2018-05-16T06:49:36.550Z,69.71
2018-05-16T06:52:04.104Z,70.52
2018-05-16T06:54:31.729Z,68.37
2018-05-16T06:56:59.285Z,69.02
2018-05-16T06:59:26.799Z,69.27
2018-05-16T07:01:54.431Z,67.91
2018-05-16T07:04:22.134Z,67.64
2018-05-16T07:06:49.695Z,70.03
2018-05-16T07:09:17.302Z,67.30
2018-05-16T07:11:44.876Z,67.57
2018-05-16T07:14:12.490Z,68.28
2018-05-16T07:16:40.077Z,66.25
2018-05-16T07:19:07.635Z,67.05
2018-05-16T07:21:35.245Z,68.95
2018-05-16T07:24:03.348Z,69.31
2018-05-16T07:26:30.924Z,70.77
2018-05-16T07:28:58.637Z,70.78
2018-05-16T07:31:26.216Z,72.62
2018-05-16T07:33:53.778Z,72.39
2018-05-16T07:36:21.381Z,72.98
2018-05-16T07:38:48.942Z,70.87
2018-05-16T07:41:16.629Z,71.41
2018-05-16T07:43:44.115Z,72.71
2018-05-16T07:46:11.658Z,74.39
2018-05-16T07:48:39.336Z,73.59
2018-05-16T07:51:06.935Z,76.33
2018-05-16T07:53:34.507Z,76.64
2018-05-16T07:56:02.214Z,76.32
2018-05-16T07:58:29.686Z,77.02
2018-05-16T08:00:57.289Z,78.39
2018-05-16T08:03:24.886Z,78.79
2018-05-16T08:05:52.483Z,80.61
2018-05-16T08:08:20.093Z,81.75
2018-05-16T08:10:47.657Z,80.83
2018-05-16T08:13:15.212Z,81.51
2018-05-16T08:15:42.793Z,80.34
2018-05-16T08:18:10.356Z,80.89
2018-05-16T08:20:37.929Z,79.10
2018-05-16T08:23:05.499Z,78.19
2018-05-16T08:25:33.105Z,75.58
2018-05-16T08:28:00.641Z,74.83
2018-05-16T08:30:28.441Z,74.56
2018-05-16T08:32:56.943Z,72.13
2018-05-16T08:35:24.575Z,73.86
2018-05-16T08:37:52.143Z,70.77
2018-05-16T08:40:19.697Z,72.30
2018-05-16T08:42:47.250Z,71.15
2018-05-16T08:45:14.867Z,70.68
2018-05-16T08:47:42.484Z,68.40
2018-05-16T08:50:10.011Z,68.16
2018-05-16T08:52:37.564Z,67.61
2018-05-16T08:55:05.106Z,66.83
2018-05-16T08:57:32.810Z,67.07
2018-05-16T09:00:00.537Z,67.30
2018-05-16T09:02:28.380Z,67.14
2018-05-16T09:04:55.935Z,68.16
2018-05-16T09:07:23.509Z,65.75
2018-05-16T09:09:51.136Z,63.80
2018-05-16T09:12:18.678Z,67.35
2018-05-16T09:14:46.279Z,66.32
2018-05-16T09:17:13.912Z,66.24
2018-05-16T09:19:41.457Z,67.07
2018-05-16T09:22:08.983Z,65.03
2018-05-16T09:24:36.575Z,65.47
2018-05-16T09:27:04.243Z,62.40
2018-05-16T09:29:32.264Z,63.37
2018-05-16T09:31:59.853Z,61.33
2018-05-16T09:34:27.445Z,60.70
2018-05-16T09:36:54.996Z,61.59
2018-05-16T09:39:22.598Z,61.51
2018-05-16T09:41:50.155Z,61.29
2018-05-16T09:44:17.717Z,61.03
2018-05-16T09:46:45.269Z,61.19
2018-05-16T09:49:12.802Z,61.43
2018-05-16T09:51:40.382Z,64.17
2018-05-16T09:54:08.021Z,63.24
2018-05-16T09:56:35.796Z,61.97
2018-05-16T09:59:03.346Z,63.09
2018-05-16T10:01:31.054Z,63.09
2018-05-16T10:03:58.670Z,60.00
2018-05-16T10:06:26.444Z,58.40
2018-05-16T10:08:54.073Z,60.04
2018-05-16T10:11:21.644Z,61.23
2018-05-16T10:13:49.238Z,61.03
2018-05-16T10:16:16.868Z,62.73
2018-05-16T10:18:44.574Z,63.21
2018-05-16T10:21:12.154Z,60.12
2018-05-16T10:23:39.765Z,60.25
2018-05-16T10:26:07.352Z,61.19
2018-05-16T10:28:34.879Z,62.46
2018-05-16T10:31:02.473Z,63.92
2018-05-16T10:33:30.073Z,62.71
2018-05-16T10:35:57.788Z,64.28
2018-05-16T10:38:25.460Z,63.81
2018-05-16T10:40:53.052Z,65.24
2018-05-16T10:43:20.590Z,65.56
2018-05-16T10:45:48.159Z,66.54
2018-05-16T10:48:15.747Z,65.11
2018-05-16T10:50:43.298Z,65.46
2018-05-16T10:53:10.899Z,66.36
2018-05-16T10:55:38.504Z,66.80
2018-05-16T10:58:06.111Z,67.59
2018-05-16T11:00:33.685Z,68.64
2018-05-16T11:03:01.251Z,68.85
2018-05-16T11:05:28.840Z,69.25
2018-05-16T11:07:56.426Z,69.23
2018-05-16T11:10:24.033Z,70.06
2018-05-16T11:12:51.604Z,70.19
2018-05-16T11:15:19.167Z,69.10
2018-05-16T11:17:46.723Z,68.42
2018-05-16T11:20:14.332Z,64.93
2018-05-16T11:22:41.900Z,62.42
2018-05-16T11:25:09.496Z,60.11
2018-05-16T11:27:37.127Z,58.71
2018-05-16T11:30:04.693Z,56.72
2018-05-16T11:32:32.267Z,53.64
2018-05-16T11:34:59.876Z,50.28
2018-05-16T11:37:27.414Z,49.33
2018-05-16T11:39:54.982Z,46.42
2018-05-16T11:42:22.570Z,45.79
2018-05-16T11:44:50.117Z,47.58
2018-05-16T11:47:17.687Z,47.04
2018-05-16T11:49:45.309Z,46.03
2018-05-16T11:52:12.845Z,48.55
2018-05-16T11:54:40.395Z,45.02
2018-05-16T11:57:07.959Z,46.81
2018-05-16T11:59:35.649Z,50.99
2018-05-16T12:02:03.678Z,57.12
2018-05-16T12:04:37.560Z,63.26
2018-05-16T12:07:06.457Z,64.15
2018-05-16T12:09:39.566Z,64.61
2018-05-16T12:12:07.310Z,75.17
2018-05-16T12:14:35.674Z,77.41
2018-05-16T12:17:03.377Z,77.10
2018-05-16T12:19:30.920Z,72.07
2018-05-16T12:21:58.554Z,70.01
2018-05-16T12:24:26.214Z,64.46
2018-05-16T12:26:53.767Z,61.09
2018-05-16T12:29:21.506Z,61.61
2018-05-16T12:31:50.653Z,56.85
2018-05-16T12:34:21.078Z,43.94
2018-05-16T12:36:48.796Z,38.13
2018-05-16T12:39:16.473Z,39.40
2018-05-16T12:41:44.164Z,40.96
2018-05-16T12:44:13.025Z,43.71
2018-05-16T12:46:40.767Z,46.08
2018-05-16T12:49:08.305Z,49.31
2018-05-16T12:51:35.908Z,49.36
2018-05-16T12:54:03.553Z,52.26
2018-05-16T12:56:31.294Z,50.60
2018-05-16T12:58:58.809Z,46.62
2018-05-16T13:01:26.393Z,43.32
2018-05-16T13:03:53.990Z,40.08
2018-05-16T13:06:21.746Z,34.24
2018-05-16T13:08:49.385Z,31.58
2018-05-16T13:11:17.012Z,29.04
2018-05-16T13:13:44.682Z,33.70
2018-05-16T13:16:12.224Z,36.79
2018-05-16T13:18:39.735Z,33.56
2018-05-16T13:21:07.301Z,33.54
2018-05-16T13:23:34.840Z,30.18
2018-05-16T13:26:02.393Z,30.16
2018-05-16T13:28:30.049Z,31.28
2018-05-16T13:30:57.591Z,33.51
2018-05-16T13:33:25.143Z,33.32
2018-05-16T13:35:52.700Z,35.93
2018-05-16T13:38:20.285Z,33.77
2018-05-16T13:40:47.846Z,35.44
2018-05-16T13:43:15.379Z,34.87
2018-05-16T13:45:43.014Z,35.84
2018-05-16T13:48:10.553Z,35.01
2018-05-16T13:50:38.196Z,36.50
2018-05-16T13:53:05.770Z,31.90
2018-05-16T13:55:33.375Z,30.31
2018-05-16T13:58:00.943Z,26.39
2018-05-16T14:09:28.682Z,33.29
2018-05-16T14:23:19.930Z,40.15
2018-05-16T14:25:47.410Z,45.18
2018-05-16T14:28:14.931Z,48.30
2018-05-16T14:30:42.411Z,51.37
2018-05-16T14:33:09.950Z,52.90
2018-05-16T14:35:37.408Z,54.52
2018-05-16T14:38:04.892Z,55.07
2018-05-16T14:40:32.375Z,57.42
2018-05-16T14:42:59.998Z,58.83
2018-05-16T14:45:27.365Z,64.03
2018-05-16T14:47:54.830Z,70.86
2018-05-16T14:50:22.299Z,75.75
2018-05-16T14:52:49.801Z,81.01
2018-05-16T14:55:17.278Z,80.94
2018-05-16T14:57:44.740Z,79.98
2018-05-16T15:00:12.230Z,79.46
2018-05-16T15:02:39.700Z,80.13
2018-05-16T15:05:07.166Z,77.56
2018-05-16T15:07:34.656Z,77.83
2018-05-16T15:10:02.117Z,76.25
2018-05-16T15:12:29.613Z,76.05
2018-05-16T15:17:47.522Z,77.46
2018-05-16T15:20:15.055Z,77.26
2018-05-16T15:22:44.167Z,75.32
2018-05-16T15:25:11.864Z,74.10
2018-05-16T15:27:39.320Z,70.89
2018-05-16T15:30:06.862Z,69.99
2018-05-16T15:32:34.323Z,71.70
2018-05-16T15:57:52.654Z,59.43
2018-05-16T16:00:20.123Z,59.74
2018-05-16T16:02:47.591Z,58.04
2018-05-16T16:05:15.165Z,60.55
2018-05-16T16:07:42.653Z,64.17
2018-05-16T16:10:10.120Z,65.44
2018-05-16T16:12:37.614Z,66.17
2018-05-16T16:15:05.118Z,66.64
2018-05-16T16:17:33.509Z,64.40
2018-05-16T16:20:01.473Z,66.38
2018-05-16T17:08:11.617Z,56.87
2018-05-16T17:10:39.079Z,58.46
2018-05-16T17:13:06.540Z,60.51
2018-05-16T17:15:34.009Z,60.66
2018-05-16T17:18:01.495Z,63.36
2018-05-16T17:26:10.142Z,64.96
2018-05-16T17:28:37.609Z,65.75
2018-05-16T17:48:04.325Z,69.60
2018-05-16T17:50:31.778Z,70.97
2018-05-16T18:04:22.407Z,73.03
2018-05-16T18:06:49.864Z,72.80
2018-05-16T18:15:12.800Z,74.80
2018-05-16T18:17:40.285Z,75.71
2018-05-16T18:20:07.751Z,75.91
2018-05-16T18:22:35.221Z,75.36
2018-05-16T18:25:02.693Z,75.43
2018-05-16T18:27:30.213Z,75.06
2018-05-16T18:30:14.384Z,75.11
2018-05-16T18:32:41.857Z,74.83
2018-05-16T18:35:09.345Z,74.38
2018-05-16T18:37:36.823Z,73.98
2018-05-16T18:48:37.076Z,76.33
2018-05-16T18:51:04.560Z,76.41
2018-05-16T18:53:32.032Z,76.45
2018-05-16T18:55:59.532Z,77.43
2018-05-16T18:58:27.019Z,77.61
2018-05-16T19:00:54.495Z,78.18
2018-05-16T19:03:21.980Z,78.75
2018-05-16T19:05:49.496Z,79.29
2018-05-16T19:08:16.988Z,79.70
2018-05-16T19:10:44.483Z,79.56
2018-05-16T19:13:11.968Z,79.84
2018-05-16T19:15:39.491Z,79.92
2018-05-16T19:18:07.016Z,80.51
2018-05-16T19:26:15.746Z,81.99
2018-05-16T19:28:43.249Z,81.51
2018-05-16T19:31:10.737Z,81.79
2018-05-16T19:33:38.224Z,82.10
2018-05-16T19:36:05.702Z,82.29
2018-05-16T19:38:33.227Z,82.73
2018-05-16T19:41:00.728Z,83.38
2018-05-16T19:43:28.193Z,82.92
2018-05-16T19:45:55.684Z,82.76
2018-05-16T19:48:23.215Z,83.00
2018-05-16T19:50:50.747Z,82.63
2018-05-16T19:53:18.241Z,82.71
2018-05-16T19:55:45.742Z,82.08
2018-05-16T19:58:13.231Z,82.00
2018-05-16T20:00:40.737Z,81.94
2018-05-16T20:03:08.228Z,81.88
2018-05-16T20:05:35.789Z,82.30
2018-05-16T20:08:03.294Z,82.63
2018-05-16T20:10:30.845Z,83.17
2018-05-16T20:12:58.356Z,83.59
2018-05-16T20:15:25.857Z,83.78
2018-05-16T20:17:53.355Z,84.01
2018-05-16T20:20:20.814Z,84.44
2018-05-16T20:22:48.303Z,85.33
2018-05-16T20:25:15.804Z,84.83
2018-05-16T20:27:43.280Z,85.63
2018-05-16T20:30:10.743Z,86.37
2018-05-16T20:32:38.219Z,86.36
2018-05-16T20:35:05.682Z,86.45
2018-05-16T20:37:33.161Z,86.25
2018-05-16T20:40:00.739Z,86.29
2018-05-16T20:42:28.182Z,86.33
2018-05-16T20:44:55.674Z,85.93
2018-05-16T20:47:23.146Z,86.32
2018-05-16T20:49:50.711Z,85.70
2018-05-16T20:52:18.185Z,85.49
2018-05-16T20:54:45.652Z,85.50
2018-05-16T20:57:13.147Z,85.30
2018-05-16T20:59:40.626Z,85.08
2018-05-16T21:02:08.112Z,84.70
2018-05-16T21:04:38.110Z,84.51
2018-05-16T22:04:17.019Z,83.42
2018-05-16T22:06:44.485Z,83.65
2018-05-16T22:09:11.968Z,83.72
2018-05-16T22:11:40.437Z,84.08
2018-05-16T22:14:26.491Z,83.78
2018-05-16T22:16:53.963Z,83.74
2018-05-16T22:19:21.433Z,83.88
2018-05-16T22:21:48.908Z,83.75
2018-05-16T22:24:17.151Z,83.24
2018-05-16T22:26:44.640Z,83.07
2018-05-16T22:32:08.762Z,82.78
2018-05-16T22:34:41.853Z,82.49
2018-05-16T22:37:14.934Z,82.99
2018-05-16T22:39:48.078Z,82.85
2018-05-16T22:42:21.206Z,82.63
2018-05-16T22:44:52.669Z,82.35
2018-05-16T22:47:20.160Z,82.49
2018-05-16T22:49:47.651Z,82.44
2018-05-16T22:52:15.209Z,82.44
2018-05-16T22:54:42.708Z,82.35
2018-05-16T22:57:10.201Z,82.42
2018-05-16T22:59:37.723Z,82.61
2018-05-16T23:02:05.219Z,82.58
2018-05-16T23:04:32.693Z,82.40
2018-05-16T23:07:11.197Z,81.65
2018-05-16T23:09:38.661Z,81.70
2018-05-16T23:20:39.084Z,81.92
2018-05-16T23:23:06.556Z,82.71
2018-05-16T23:25:34.067Z,82.69
2018-05-16T23:28:01.640Z,82.62
2018-05-16T23:30:29.192Z,82.49
2018-05-16T23:32:56.663Z,82.50
2018-05-16T23:35:24.131Z,82.82
2018-05-16T23:57:59.126Z,83.27
